Time;durP1;ratioP1;P1;durP2;ratioP2;P2;SDS_P1;SDS_P2;PMS_P1;PMS_P2;Temp;Humidity;BMP_temperature;BMP_pressure;BME280_temperature;BME280_humidity;BME280_pressure;Samples;Min_cycle;Max_cycle;Signal;HPM_P1;HPM_P2
2022/09/27 00:02:13;;;;;;;1.58;1.20;;;14.00;67.10;;;;;;5080947;28;20048;-59
2022/09/27 00:04:39;;;;;;;1.60;1.30;;;14.00;67.10;;;;;;5091439;28;20025;-60
2022/09/27 00:07:04;;;;;;;1.67;1.15;;;14.00;67.10;;;;;;5098310;28;20578;-58
2022/09/27 00:09:30;;;;;;;1.20;1.10;;;14.00;66.90;;;;;;5071388;28;20073;-59
2022/09/27 00:11:56;;;;;;;2.88;1.30;;;14.00;67.00;;;;;;5095692;28;20089;-59
2022/09/27 00:14:22;;;;;;;1.85;1.17;;;14.00;67.00;;;;;;5085314;28;20443;-59
2022/09/27 00:16:47;;;;;;;1.98;1.02;;;14.00;67.10;;;;;;5089836;28;20052;-59
2022/09/27 00:19:18;;;;;;;1.25;1.10;;;13.90;67.10;;;;;;5085225;28;20017;-59
2022/09/27 00:21:45;;;;;;;1.20;0.98;;;13.90;67.10;;;;;;5072120;28;20032;-61
2022/09/27 00:24:16;;;;;;;3.92;1.05;;;13.90;66.90;;;;;;5086180;28;20065;-60
2022/09/27 00:26:42;;;;;;;1.00;0.90;;;13.90;67.30;;;;;;5096507;28;20052;-59
2022/09/27 00:29:09;;;;;;;1.08;0.98;;;13.90;67.10;;;;;;5086023;28;20040;-58
2022/09/27 00:31:36;;;;;;;1.67;1.10;;;13.90;67.20;;;;;;5088341;28;20013;-59
2022/09/27 00:34:03;;;;;;;1.30;0.90;;;13.90;66.90;;;;;;5080625;28;20040;-59
2022/09/27 00:36:30;;;;;;;2.38;1.00;;;13.90;66.70;;;;;;5098662;28;20033;-59
2022/09/27 00:38:58;;;;;;;2.90;0.90;;;13.80;66.60;;;;;;5081395;28;20051;-60
2022/09/27 00:41:33;;;;;;;5.57;0.90;;;13.80;66.90;;;;;;5090095;28;20051;-57
2022/09/27 00:44:03;;;;;;;1.40;0.80;;;13.80;67.30;;;;;;5078984;28;20056;-59
2022/09/27 00:47:01;;;;;;;0.80;0.80;;;13.70;67.00;;;;;;5080983;28;20024;-58
2022/09/27 00:49:35;;;;;;;0.82;0.70;;;13.70;67.20;;;;;;5070553;28;20108;-59
2022/09/27 00:52:10;;;;;;;1.98;0.80;;;13.70;67.30;;;;;;5089128;28;20028;-59
2022/09/27 00:54:39;;;;;;;1.48;1.00;;;13.70;67.30;;;;;;5096505;28;20020;-59
2022/09/27 00:57:05;;;;;;;1.27;0.85;;;13.70;67.20;;;;;;5076576;28;20027;-59
2022/09/27 00:59:34;;;;;;;1.35;0.90;;;13.70;67.30;;;;;;5081335;28;20131;-58
2022/09/27 01:02:00;;;;;;;1.00;0.80;;;13.70;67.40;;;;;;5076051;28;20036;-59
2022/09/27 01:04:29;;;;;;;0.77;0.68;;;13.70;67.20;;;;;;5075176;28;20024;-58
2022/09/27 01:06:55;;;;;;;1.02;0.70;;;13.60;67.20;;;;;;5095596;28;20107;-61
2022/09/27 01:09:22;;;;;;;2.63;1.00;;;13.60;67.20;;;;;;5077508;28;20041;-58
2022/09/27 01:12:21;;;;;;;1.25;0.88;;;13.60;67.10;;;;;;5084129;28;20082;-58
2022/09/27 01:14:59;;;;;;;1.17;1.08;;;13.50;68.10;;;;;;5085378;28;20029;-59
2022/09/27 01:17:46;;;;;;;1.40;1.00;;;13.50;67.50;;;;;;5074208;28;20036;-59
2022/09/27 01:20:33;;;;;;;1.65;1.20;;;13.50;67.70;;;;;;5100366;28;20090;-59
2022/09/27 01:23:08;;;;;;;1.73;1.17;;;13.40;67.60;;;;;;5083117;28;20036;-59
2022/09/27 01:26:15;;;;;;;3.13;1.27;;;13.40;67.50;;;;;;5083799;28;20050;-57
2022/09/27 01:29:02;;;;;;;1.77;1.10;;;13.30;68.60;;;;;;5068273;28;20052;-60
2022/09/27 01:31:39;;;;;;;0.95;0.93;;;13.30;68.30;;;;;;5069134;28;20055;-58
2022/09/27 01:34:55;;;;;;;3.13;0.85;;;13.30;68.40;;;;;;5074535;28;20414;-59
2022/09/27 01:37:39;;;;;;;1.05;0.95;;;13.20;69.30;;;;;;5084155;28;20055;-58
2022/09/27 01:40:23;;;;;;;1.15;0.80;;;13.20;68.80;;;;;;5066194;28;20096;-60
2022/09/27 01:42:56;;;;;;;1.50;1.00;;;13.20;69.60;;;;;;5086547;28;20031;-58
2022/09/27 01:45:37;;;;;;;1.40;0.90;;;13.10;68.70;;;;;;5088654;28;20472;-59
2022/09/27 01:48:09;;;;;;;1.33;1.02;;;13.10;68.90;;;;;;5082011;28;20047;-58
2022/09/27 01:50:53;;;;;;;0.80;0.80;;;13.10;68.90;;;;;;5108227;28;20069;-59
2022/09/27 01:53:39;;;;;;;1.00;0.90;;;13.10;69.60;;;;;;5083112;28;20054;-58
2022/09/27 01:56:10;;;;;;;1.08;0.88;;;13.10;69.60;;;;;;5091234;28;20032;-59
2022/09/27 01:58:56;;;;;;;0.88;0.88;;;13.10;69.30;;;;;;5080574;28;20028;-61
2022/09/27 02:01:26;;;;;;;0.98;0.90;;;13.00;70.40;;;;;;5088307;28;20071;-59
2022/09/27 02:03:53;;;;;;;1.23;0.85;;;13.00;69.30;;;;;;5086782;28;20044;-59
2022/09/27 02:06:29;;;;;;;2.55;1.10;;;13.00;69.40;;;;;;5095803;28;20031;-59
2022/09/27 02:09:07;;;;;;;1.60;0.80;;;13.00;70.10;;;;;;5079515;28;20117;-60
2022/09/27 02:11:35;;;;;;;1.85;0.85;;;13.00;70.10;;;;;;5078298;28;20025;-59
2022/09/27 02:14:33;;;;;;;1.38;0.88;;;13.00;69.90;;;;;;5087456;28;20032;-60
2022/09/27 02:17:15;;;;;;;1.02;0.90;;;13.00;71.00;;;;;;5066239;28;20056;-60
2022/09/27 02:19:58;;;;;;;2.80;0.80;;;13.00;70.60;;;;;;5085991;28;20024;-60
2022/09/27 02:22:34;;;;;;;2.10;0.98;;;13.00;70.10;;;;;;5083428;28;20060;-58
2022/09/27 02:25:19;;;;;;;1.25;0.93;;;13.00;70.70;;;;;;5086583;28;20033;-60
2022/09/27 02:28:10;;;;;;;0.93;0.77;;;13.00;70.40;;;;;;5082029;28;20025;-59
2022/09/27 02:30:35;;;;;;;0.90;0.77;;;13.00;71.40;;;;;;5100523;28;20040;-60
2022/09/27 02:33:02;;;;;;;3.53;0.85;;;13.00;70.10;;;;;;5096731;28;20020;-58
2022/09/27 02:35:31;;;;;;;1.05;0.80;;;13.00;70.50;;;;;;5078494;28;20025;-59
2022/09/27 02:37:58;;;;;;;0.80;0.70;;;13.00;70.50;;;;;;5099594;28;20084;-60
2022/09/27 02:40:28;;;;;;;3.33;1.00;;;13.00;70.50;;;;;;5108077;28;20024;-60
2022/09/27 02:42:54;;;;;;;0.70;0.70;;;13.00;70.40;;;;;;5081962;28;20069;-60
2022/09/27 02:45:20;;;;;;;3.28;0.90;;;13.00;70.70;;;;;;5089455;28;20063;-58
2022/09/27 02:47:56;;;;;;;1.30;0.90;;;13.00;70.60;;;;;;5077875;28;20027;-60
2022/09/27 02:50:43;;;;;;;1.58;0.77;;;13.00;70.50;;;;;;5093537;28;20048;-60
2022/09/27 02:53:27;;;;;;;9.25;0.82;;;13.00;70.40;;;;;;5074501;28;20088;-60
2022/09/27 02:56:07;;;;;;;1.20;0.82;;;13.00;71.20;;;;;;5090671;28;20040;-59
2022/09/27 02:58:40;;;;;;;0.95;0.70;;;13.00;70.60;;;;;;5068185;28;20048;-60
2022/09/27 03:01:19;;;;;;;0.80;0.80;;;13.00;70.30;;;;;;5073369;28;20138;-58
2022/09/27 03:03:52;;;;;;;0.95;0.80;;;13.00;71.00;;;;;;5085383;28;20275;-60
2022/09/27 03:06:21;;;;;;;1.90;0.90;;;13.00;70.70;;;;;;5077606;28;20033;-59
2022/09/27 03:08:47;;;;;;;0.80;0.80;;;13.00;70.70;;;;;;5084189;28;20028;-58
2022/09/27 03:11:12;;;;;;;2.35;0.80;;;13.00;70.60;;;;;;5102349;28;20055;-60
2022/09/27 03:13:38;;;;;;;0.60;0.60;;;12.90;70.80;;;;;;5093735;28;20536;-60
2022/09/27 03:16:05;;;;;;;0.70;0.70;;;13.00;70.50;;;;;;5087515;28;20616;-59
2022/09/27 03:18:33;;;;;;;1.30;0.70;;;12.90;70.60;;;;;;5089362;28;20032;-58
2022/09/27 03:20:59;;;;;;;1.40;0.85;;;12.90;70.80;;;;;;5090924;28;20052;-59
2022/09/27 03:23:25;;;;;;;2.88;0.80;;;12.90;70.70;;;;;;5091208;28;20020;-61
2022/09/27 03:25:51;;;;;;;2.28;1.00;;;12.90;70.60;;;;;;5071062;28;20033;-59
2022/09/27 03:28:17;;;;;;;1.02;0.80;;;12.90;70.60;;;;;;5080057;28;20024;-59
2022/09/27 03:30:46;;;;;;;0.70;0.70;;;12.90;71.00;;;;;;5101691;28;20025;-59
2022/09/27 03:33:12;;;;;;;2.80;1.23;;;12.90;71.20;;;;;;5089970;28;20028;-59
2022/09/27 03:35:40;;;;;;;1.90;1.20;;;12.90;71.20;;;;;;5092531;28;20055;-58
2022/09/27 03:38:06;;;;;;;0.82;0.75;;;12.90;71.20;;;;;;5080922;28;20031;-59
2022/09/27 03:40:32;;;;;;;1.55;0.98;;;12.90;70.80;;;;;;5101586;28;20040;-58
2022/09/27 03:42:58;;;;;;;2.28;0.80;;;12.90;71.20;;;;;;5088934;28;20058;-61
2022/09/27 03:45:23;;;;;;;2.40;0.73;;;12.90;71.20;;;;;;5092526;28;20107;-59
2022/09/27 03:47:49;;;;;;;0.80;0.80;;;12.90;71.40;;;;;;5084847;28;20032;-59
2022/09/27 03:50:15;;;;;;;1.70;0.70;;;12.90;70.80;;;;;;5091793;28;20040;-58
2022/09/27 03:52:44;;;;;;;3.70;0.80;;;12.90;70.60;;;;;;5052100;27;20036;-58
2022/09/27 03:55:11;;;;;;;3.42;0.65;;;12.90;70.40;;;;;;5082714;28;20533;-59
2022/09/27 03:57:37;;;;;;;2.00;1.70;;;12.90;70.10;;;;;;5070677;28;20021;-59
2022/09/27 04:00:05;;;;;;;1.00;0.90;;;12.80;69.70;;;;;;5078204;28;20021;-60
2022/09/27 04:02:31;;;;;;;0.60;0.60;;;12.80;69.70;;;;;;5103210;28;20057;-58
2022/09/27 04:04:56;;;;;;;1.60;0.95;;;12.80;69.20;;;;;;5085747;28;20048;-60
2022/09/27 04:07:22;;;;;;;0.70;0.70;;;12.70;69.00;;;;;;5077947;28;20024;-58
2022/09/27 04:09:48;;;;;;;1.45;0.70;;;12.70;68.90;;;;;;5079804;28;20127;-59
2022/09/27 04:12:14;;;;;;;0.70;0.60;;;12.60;68.80;;;;;;5102805;28;20034;-59
2022/09/27 04:14:40;;;;;;;1.42;0.60;;;12.60;68.80;;;;;;5076742;28;20112;-59
2022/09/27 04:17:06;;;;;;;0.93;0.77;;;12.50;68.80;;;;;;5080828;28;20138;-59
2022/09/27 04:19:32;;;;;;;2.63;0.95;;;12.50;68.90;;;;;;5088778;28;20032;-59
2022/09/27 04:21:58;;;;;;;0.80;0.80;;;12.50;69.30;;;;;;5105293;28;20028;-60
2022/09/27 04:24:24;;;;;;;1.95;0.80;;;12.40;68.50;;;;;;5075269;28;20044;-58
2022/09/27 04:26:50;;;;;;;1.48;0.80;;;12.40;68.60;;;;;;5084749;28;20025;-59
2022/09/27 04:29:16;;;;;;;1.17;0.80;;;12.30;68.70;;;;;;5092775;28;20032;-61
2022/09/27 04:31:43;;;;;;;1.48;0.80;;;12.30;68.70;;;;;;5079762;28;20059;-59
2022/09/27 04:34:09;;;;;;;4.55;0.85;;;12.20;68.90;;;;;;5088063;28;20050;-59
2022/09/27 04:36:35;;;;;;;1.52;0.70;;;12.20;69.00;;;;;;5096454;28;20036;-59
2022/09/27 04:39:04;;;;;;;2.33;0.90;;;12.20;69.00;;;;;;5099456;28;20054;-60
2022/09/27 04:41:30;;;;;;;2.15;1.00;;;12.20;69.10;;;;;;5088748;28;20056;-58
2022/09/27 04:43:59;;;;;;;1.90;0.90;;;12.10;68.70;;;;;;5094904;28;20040;-59
2022/09/27 04:46:24;;;;;;;1.02;0.73;;;12.10;68.80;;;;;;5085804;28;20038;-59
2022/09/27 04:48:52;;;;;;;1.30;0.80;;;12.10;68.90;;;;;;5100857;28;20290;-58
2022/09/27 04:51:18;;;;;;;1.30;0.77;;;12.10;69.10;;;;;;5083754;28;20048;-59
2022/09/27 04:53:44;;;;;;;1.23;0.95;;;12.00;69.20;;;;;;5084498;28;20029;-58
2022/09/27 04:56:11;;;;;;;1.13;1.00;;;12.00;69.30;;;;;;5101477;28;20408;-59
2022/09/27 04:58:38;;;;;;;1.58;1.00;;;12.00;69.30;;;;;;5081839;28;20054;-59
2022/09/27 05:01:04;;;;;;;1.13;1.02;;;12.00;69.30;;;;;;5067764;28;20025;-59
2022/09/27 05:03:31;;;;;;;1.80;1.05;;;12.00;69.60;;;;;;5088526;28;20100;-59
2022/09/27 05:05:57;;;;;;;3.92;1.00;;;12.00;69.50;;;;;;5102149;28;20501;-59
2022/09/27 05:08:22;;;;;;;2.08;0.90;;;12.00;69.60;;;;;;5091683;28;20097;-59
2022/09/27 05:10:49;;;;;;;2.22;0.90;;;12.00;69.50;;;;;;5094619;28;20059;-58
2022/09/27 05:13:15;;;;;;;1.95;0.80;;;12.00;69.70;;;;;;5086132;28;20017;-59
2022/09/27 05:15:41;;;;;;;6.75;0.95;;;12.00;69.70;;;;;;5091633;28;20036;-60
2022/09/27 05:18:08;;;;;;;0.80;0.70;;;12.00;70.50;;;;;;5099645;28;20036;-58
2022/09/27 05:20:38;;;;;;;2.92;1.13;;;12.00;69.70;;;;;;5080384;28;20024;-59
2022/09/27 05:23:04;;;;;;;1.55;0.90;;;12.00;69.60;;;;;;5092163;28;20050;-59
2022/09/27 05:25:31;;;;;;;3.20;1.30;;;12.00;69.70;;;;;;5108940;28;20020;-58
2022/09/27 05:27:59;;;;;;;2.88;0.82;;;12.00;69.80;;;;;;5093632;28;20011;-58
2022/09/27 05:30:26;;;;;;;4.18;1.25;;;11.90;69.80;;;;;;5068782;28;20041;-58
2022/09/27 05:32:52;;;;;;;3.55;1.13;;;12.00;70.00;;;;;;5086121;28;20028;-59
2022/09/27 05:35:19;;;;;;;2.75;0.80;;;12.00;70.10;;;;;;5085863;28;20040;-58
2022/09/27 05:37:53;;;;;;;5.38;1.17;;;11.90;70.20;;;;;;5084349;28;20136;-59
2022/09/27 05:40:23;;;;;;;1.77;1.08;;;11.90;70.60;;;;;;5085699;28;20486;-59
2022/09/27 05:42:50;;;;;;;6.07;0.80;;;11.90;70.20;;;;;;5084299;28;20088;-59
2022/09/27 05:45:16;;;;;;;2.47;1.00;;;11.90;70.40;;;;;;5080344;28;20032;-58
2022/09/27 05:47:41;;;;;;;2.55;0.85;;;11.90;70.40;;;;;;5081368;28;20036;-59
2022/09/27 05:50:09;;;;;;;3.92;1.00;;;11.90;71.20;;;;;;5088174;28;20076;-58
2022/09/27 05:52:34;;;;;;;4.18;0.90;;;11.90;70.60;;;;;;5037232;28;20054;-59
2022/09/27 05:55:01;;;;;;;2.45;0.85;;;11.90;70.50;;;;;;5076046;28;20032;-60
2022/09/27 05:57:27;;;;;;;3.45;0.90;;;11.90;70.50;;;;;;5089097;28;20025;-59
2022/09/27 05:59:52;;;;;;;1.77;0.82;;;11.90;70.80;;;;;;5084741;28;20056;-58
2022/09/27 06:02:18;;;;;;;5.55;1.08;;;12.00;70.90;;;;;;5089606;28;20029;-59
2022/09/27 06:04:44;;;;;;;2.78;0.98;;;12.00;71.10;;;;;;5071472;28;20025;-59
2022/09/27 06:07:09;;;;;;;2.72;0.88;;;12.00;70.70;;;;;;5097397;28;20098;-60
2022/09/27 06:09:35;;;;;;;2.90;0.90;;;12.00;70.60;;;;;;5099229;28;20060;-58
2022/09/27 06:12:01;;;;;;;2.05;0.85;;;12.10;70.70;;;;;;5078661;28;20059;-59
2022/09/27 06:14:26;;;;;;;5.38;1.00;;;12.10;70.70;;;;;;5086127;28;20034;-58
2022/09/27 06:16:55;;;;;;;1.90;0.80;;;12.10;70.60;;;;;;5075973;28;20090;-58
2022/09/27 06:19:21;;;;;;;2.97;0.93;;;12.20;70.80;;;;;;5083146;28;20052;-58
2022/09/27 06:21:49;;;;;;;3.70;1.00;;;12.20;70.60;;;;;;5086034;28;20165;-59
2022/09/27 06:24:15;;;;;;;2.85;0.85;;;12.30;70.40;;;;;;5076547;28;20037;-58
2022/09/27 06:26:41;;;;;;;1.95;0.75;;;12.30;70.20;;;;;;5082997;28;20039;-59
2022/09/27 06:29:07;;;;;;;2.53;0.85;;;12.30;69.70;;;;;;5074484;28;20037;-59
2022/09/27 06:31:33;;;;;;;2.53;0.70;;;12.40;69.60;;;;;;5082764;28;20055;-60
2022/09/27 06:33:59;;;;;;;3.47;1.35;;;12.30;69.50;;;;;;5075432;28;20056;-59
2022/09/27 06:36:25;;;;;;;3.03;0.90;;;12.30;69.30;;;;;;5088486;28;20041;-59
2022/09/27 06:38:50;;;;;;;1.60;0.82;;;12.30;69.40;;;;;;5089108;28;20025;-58
2022/09/27 06:41:16;;;;;;;3.55;1.10;;;12.30;69.20;;;;;;5080834;28;20114;-58
2022/09/27 06:43:41;;;;;;;2.35;1.10;;;12.30;69.10;;;;;;5083707;28;20066;-59
2022/09/27 06:46:07;;;;;;;2.33;0.80;;;12.30;69.10;;;;;;5095707;28;20075;-58
2022/09/27 06:48:33;;;;;;;2.38;0.80;;;12.30;69.30;;;;;;5081822;28;20060;-59
2022/09/27 06:50:59;;;;;;;2.45;0.90;;;12.30;69.30;;;;;;4975087;28;20052;-59
2022/09/27 06:53:25;;;;;;;1.85;0.80;;;12.30;69.20;;;;;;5096861;28;20030;-58
2022/09/27 06:55:51;;;;;;;2.03;0.88;;;12.30;69.20;;;;;;5086462;28;20039;-59
2022/09/27 07:01:02;;;;;;;2.30;0.77;;;12.30;69.30;;;;;;5086578;28;20055;-60
2022/09/27 07:03:31;;;;;;;2.28;0.90;;;12.30;69.50;;;;;;5098241;28;20032;-62
2022/09/27 07:06:02;;;;;;;2.80;1.05;;;12.20;69.40;;;;;;5087843;28;20074;-58
2022/09/27 07:08:28;;;;;;;1.30;0.73;;;12.30;69.50;;;;;;5088893;28;20336;-59
2022/09/27 07:11:01;;;;;;;1.15;0.60;;;12.30;69.50;;;;;;5085829;28;20029;-58
2022/09/27 07:13:31;;;;;;;5.72;0.80;;;12.30;69.40;;;;;;5072923;28;20029;-59
2022/09/27 07:15:57;;;;;;;3.30;0.70;;;12.30;69.40;;;;;;5075975;28;20029;-58
2022/09/27 07:18:23;;;;;;;1.38;0.70;;;12.30;69.30;;;;;;5078474;28;20066;-58
2022/09/27 07:20:49;;;;;;;2.08;0.80;;;12.30;69.40;;;;;;5084923;28;20103;-58
2022/09/27 07:23:16;;;;;;;0.70;0.60;;;12.30;69.30;;;;;;5107439;28;20028;-58
2022/09/27 07:25:42;;;;;;;1.17;0.63;;;12.30;69.20;;;;;;5087297;28;20038;-59
2022/09/27 07:28:15;;;;;;;1.92;0.80;;;12.40;69.30;;;;;;5107122;28;20039;-57
2022/09/27 07:30:41;;;;;;;0.65;0.43;;;12.30;69.10;;;;;;5084329;28;20483;-59
2022/09/27 07:33:08;;;;;;;1.95;0.70;;;12.30;68.90;;;;;;5106784;28;20059;-59
2022/09/27 07:35:38;;;;;;;0.52;0.47;;;12.30;68.90;;;;;;5086937;28;20024;-58
2022/09/27 07:38:07;;;;;;;0.90;0.50;;;12.30;69.00;;;;;;5081551;28;20024;-59
2022/09/27 07:40:35;;;;;;;0.82;0.50;;;12.30;68.90;;;;;;5089403;28;20058;-59
2022/09/27 07:43:01;;;;;;;0.70;0.70;;;12.30;68.70;;;;;;5107181;28;20036;-60
2022/09/27 07:45:27;;;;;;;1.52;0.60;;;12.30;68.50;;;;;;5087153;28;20025;-60
2022/09/27 07:47:53;;;;;;;1.48;0.60;;;12.30;68.50;;;;;;5107083;28;20403;-59
2022/09/27 07:50:19;;;;;;;0.77;0.50;;;12.30;68.30;;;;;;5023832;28;20059;-61
2022/09/27 07:52:50;;;;;;;1.17;0.80;;;12.30;68.30;;;;;;5107037;28;20062;-61
2022/09/27 07:55:18;;;;;;;1.02;0.80;;;12.30;68.30;;;;;;5079706;28;20039;-59
2022/09/27 07:57:44;;;;;;;0.50;0.50;;;12.30;68.50;;;;;;5090639;28;20008;-61
2022/09/27 08:00:15;;;;;;;1.65;0.50;;;12.30;68.60;;;;;;5115575;28;20051;-58
2022/09/27 08:02:42;;;;;;;2.47;0.60;;;12.30;68.60;;;;;;5076083;28;20029;-59
2022/09/27 08:05:10;;;;;;;1.77;0.75;;;12.30;68.50;;;;;;5115530;28;20034;-60
2022/09/27 08:07:38;;;;;;;1.55;0.60;;;12.30;68.70;;;;;;5086013;28;20035;-58
2022/09/27 08:10:04;;;;;;;0.40;0.40;;;12.40;68.60;;;;;;5105444;28;20355;-58
2022/09/27 08:12:30;;;;;;;0.68;0.50;;;12.50;68.60;;;;;;5085810;28;20035;-59
2022/09/27 08:15:00;;;;;;;0.50;0.50;;;12.50;68.10;;;;;;5105207;28;20099;-59
2022/09/27 08:17:27;;;;;;;0.70;0.60;;;12.60;67.70;;;;;;5086471;28;20052;-59
2022/09/27 08:19:53;;;;;;;0.40;0.40;;;12.60;67.50;;;;;;5095745;28;20071;-59
2022/09/27 08:22:20;;;;;;;1.23;0.50;;;12.70;66.70;;;;;;5106049;28;20103;-60
2022/09/27 08:24:46;;;;;;;0.40;0.40;;;12.70;66.30;;;;;;5094502;28;20020;-60
2022/09/27 08:27:12;;;;;;;1.50;0.65;;;12.70;66.50;;;;;;5086886;28;20498;-60
2022/09/27 08:29:40;;;;;;;1.23;0.68;;;12.60;66.00;;;;;;5104834;28;20070;-59
2022/09/27 08:32:10;;;;;;;0.93;0.50;;;12.60;66.10;;;;;;5099158;28;20079;-58
2022/09/27 08:34:36;;;;;;;0.40;0.40;;;12.60;66.40;;;;;;5099075;28;20020;-60
2022/09/27 08:37:02;;;;;;;0.40;0.40;;;12.60;66.40;;;;;;5105655;28;20028;-59
2022/09/27 08:39:28;;;;;;;0.35;0.35;;;12.60;66.50;;;;;;5100490;28;20053;-59
2022/09/27 08:42:32;;;;;;;0.50;0.50;;;12.60;66.50;;;;;;5105772;28;20046;-59
2022/09/27 08:45:17;;;;;;;0.45;0.40;;;12.60;66.50;;;;;;5084945;28;20430;-58
2022/09/27 08:47:48;;;;;;;0.40;0.40;;;12.70;66.90;;;;;;5066275;28;20037;-58
2022/09/27 08:50:28;;;;;;;3.05;0.60;;;12.70;66.60;;;;;;5083100;28;20048;-58
2022/09/27 08:53:07;;;;;;;1.02;0.88;;;12.70;66.20;;;;;;5075865;28;20032;-58
2022/09/27 08:55:37;;;;;;;1.02;0.75;;;12.80;66.00;;;;;;5080826;28;20060;-59
2022/09/27 08:58:24;;;;;;;1.08;0.90;;;12.80;65.40;;;;;;5105985;28;20051;-58
2022/09/27 09:00:54;;;;;;;1.25;0.82;;;12.80;65.20;;;;;;5081636;28;20020;-59
2022/09/27 09:03:22;;;;;;;0.60;0.60;;;12.70;65.10;;;;;;5105992;28;20016;-60
2022/09/27 09:06:14;;;;;;;2.50;0.60;;;12.70;65.40;;;;;;5085234;28;20024;-61
2022/09/27 09:08:58;;;;;;;0.73;0.50;;;12.70;65.70;;;;;;5082038;28;20037;-59
2022/09/27 09:14:54;;;;;;;0.47;0.47;;;12.60;65.30;;;;;;5071857;28;20120;-60
2022/09/27 09:17:31;;;;;;;0.60;0.55;;;12.60;65.60;;;;;;5086554;28;20025;-61
2022/09/27 09:20:29;;;;;;;1.33;0.60;;;12.60;65.60;;;;;;5073501;28;20029;-59
2022/09/27 09:23:15;;;;;;;3.80;0.80;;;12.60;65.20;;;;;;5066106;28;20025;-59
2022/09/27 09:26:06;;;;;;;0.60;0.50;;;12.70;65.10;;;;;;5079284;28;20032;-59
2022/09/27 09:28:53;;;;;;;1.30;0.77;;;12.70;65.30;;;;;;5105133;28;20039;-58
2022/09/27 09:31:25;;;;;;;0.60;0.52;;;12.70;65.50;;;;;;5084236;28;20047;-59
2022/09/27 09:33:57;;;;;;;1.05;0.60;;;12.80;65.90;;;;;;5065579;28;20036;-58
2022/09/27 09:36:31;;;;;;;0.50;0.50;;;12.80;65.90;;;;;;5084503;28;20025;-58
2022/09/27 09:39:04;;;;;;;0.40;0.40;;;12.90;65.50;;;;;;5065749;28;20032;-59
2022/09/27 09:41:48;;;;;;;0.93;0.45;;;13.00;65.80;;;;;;5065750;28;20033;-59
2022/09/27 09:44:22;;;;;;;0.50;0.50;;;13.10;65.60;;;;;;5067975;28;20029;-59
2022/09/27 09:46:54;;;;;;;1.90;0.60;;;13.30;65.60;;;;;;5104638;28;20103;-61
2022/09/27 09:49:29;;;;;;;1.20;0.50;;;13.40;65.70;;;;;;5078820;28;20059;-59
2022/09/27 09:52:01;;;;;;;0.50;0.45;;;13.60;65.30;;;;;;5085646;28;20029;-59
2022/09/27 09:54:38;;;;;;;0.68;0.50;;;13.70;65.10;;;;;;5078038;28;20332;-60
2022/09/27 09:57:16;;;;;;;0.85;0.63;;;13.90;63.90;;;;;;5106881;28;20028;-60
2022/09/27 10:00:12;;;;;;;1.75;1.42;;;14.00;63.70;;;;;;5070912;28;20071;-60
2022/09/27 10:02:41;;;;;;;3.15;2.35;;;14.10;63.30;;;;;;5085122;28;20072;-59
2022/09/27 10:05:11;;;;;;;1.30;1.00;;;14.20;62.10;;;;;;5099804;28;20025;-59
2022/09/27 10:07:38;;;;;;;5.05;3.03;;;14.20;62.60;;;;;;5069942;28;20053;-59
2022/09/27 10:10:06;;;;;;;3.22;2.17;;;14.20;62.30;;;;;;5100452;28;20128;-60
2022/09/27 10:12:32;;;;;;;3.20;1.75;;;14.30;61.90;;;;;;5097281;28;20044;-60
2022/09/27 10:15:00;;;;;;;0.90;0.70;;;14.20;61.60;;;;;;5107772;28;20024;-59
2022/09/27 10:17:34;;;;;;;0.88;0.70;;;14.20;61.40;;;;;;5109417;28;20031;-60
2022/09/27 10:20:02;;;;;;;2.35;1.00;;;14.10;60.70;;;;;;5085000;28;20020;-58
2022/09/27 10:22:36;;;;;;;0.75;0.60;;;13.90;60.50;;;;;;5109468;28;20031;-59
2022/09/27 10:25:06;;;;;;;1.90;0.70;;;13.80;60.70;;;;;;5074828;28;20031;-60
2022/09/27 10:27:45;;;;;;;0.52;0.52;;;13.60;61.20;;;;;;5068670;28;20063;-59
2022/09/27 10:30:34;;;;;;;0.77;0.50;;;13.60;62.80;;;;;;5088017;28;20040;-60
2022/09/27 10:33:05;;;;;;;0.65;0.50;;;13.60;64.40;;;;;;5108926;28;20054;-59
2022/09/27 10:35:38;;;;;;;0.73;0.45;;;13.70;64.70;;;;;;5089880;28;20052;-59
2022/09/27 10:38:19;;;;;;;1.05;0.80;;;13.80;64.70;;;;;;5068768;28;20038;-59
2022/09/27 10:40:45;;;;;;;1.08;0.45;;;13.90;64.00;;;;;;5094803;28;20039;-59
2022/09/27 10:43:32;;;;;;;0.80;0.47;;;14.00;63.70;;;;;;5108863;28;20028;-60
2022/09/27 10:46:32;;;;;;;0.40;0.40;;;14.10;62.80;;;;;;5093147;28;20050;-60
2022/09/27 10:49:27;;;;;;;1.17;0.50;;;14.20;62.60;;;;;;5091414;28;20036;-58
2022/09/27 10:51:56;;;;;;;0.52;0.50;;;14.20;61.90;;;;;;5080958;28;20075;-59
2022/09/27 10:54:28;;;;;;;0.30;0.30;;;14.20;62.90;;;;;;5109198;28;20016;-61
2022/09/27 10:56:55;;;;;;;1.00;0.47;;;14.30;63.30;;;;;;5081679;28;20402;-60
2022/09/27 10:59:22;;;;;;;1.33;0.60;;;14.50;62.60;;;;;;5106406;28;20032;-58
2022/09/27 11:01:49;;;;;;;0.88;0.50;;;14.60;62.50;;;;;;5107633;28;20028;-59
2022/09/27 11:04:36;;;;;;;1.60;0.52;;;14.70;62.70;;;;;;5088725;28;20115;-58
2022/09/27 11:07:31;;;;;;;0.47;0.47;;;14.90;62.60;;;;;;5088151;28;20029;-58
2022/09/27 11:10:03;;;;;;;1.23;0.70;;;15.10;61.40;;;;;;5072546;28;20036;-59
2022/09/27 11:12:30;;;;;;;2.20;0.70;;;15.30;60.80;;;;;;5108201;28;20034;-61
2022/09/27 11:15:06;;;;;;;1.55;0.50;;;15.40;59.40;;;;;;5091086;28;20052;-60
2022/09/27 11:17:57;;;;;;;0.47;0.45;;;15.40;58.90;;;;;;5108139;28;20070;-60
2022/09/27 11:20:38;;;;;;;0.95;0.50;;;15.50;58.70;;;;;;5093949;28;20036;-59
2022/09/27 11:23:13;;;;;;;1.30;0.40;;;15.50;58.10;;;;;;5067477;28;20037;-60
2022/09/27 11:26:31;;;;;;;1.08;0.50;;;15.50;57.60;;;;;;5094921;28;20052;-59
2022/09/27 11:29:25;;;;;;;1.75;0.65;;;15.60;57.70;;;;;;5063843;28;20044;-59
2022/09/27 11:32:06;;;;;;;1.02;0.60;;;15.70;56.70;;;;;;5067326;28;20037;-59
2022/09/27 11:34:56;;;;;;;0.65;0.47;;;15.70;57.40;;;;;;5074797;28;20097;-59
2022/09/27 11:38:01;;;;;;;1.60;0.68;;;15.80;57.60;;;;;;5067208;28;20075;-58
2022/09/27 11:40:43;;;;;;;1.00;0.52;;;15.90;56.80;;;;;;5075281;28;20059;-59
2022/09/27 11:43:36;;;;;;;1.00;0.60;;;15.90;56.80;;;;;;5107311;28;20119;-58
2022/09/27 11:46:17;;;;;;;1.80;0.60;;;16.00;56.90;;;;;;5083531;28;20048;-59
2022/09/27 11:48:58;;;;;;;0.90;0.57;;;16.10;56.70;;;;;;5074933;28;20059;-59
2022/09/27 11:51:39;;;;;;;0.73;0.55;;;16.10;56.50;;;;;;5090002;28;20070;-60
2022/09/27 11:54:11;;;;;;;0.93;0.50;;;16.10;56.10;;;;;;5106517;28;20024;-59
2022/09/27 11:57:00;;;;;;;0.70;0.52;;;16.10;55.40;;;;;;5083879;28;20024;-59
2022/09/27 11:59:53;;;;;;;3.42;0.60;;;16.10;55.30;;;;;;5107118;28;20020;-61
2022/09/27 12:02:21;;;;;;;0.65;0.50;;;16.00;55.30;;;;;;5067750;28;20095;-61
2022/09/27 12:05:13;;;;;;;2.28;0.90;;;16.00;54.80;;;;;;5103676;28;20043;-60
2022/09/27 12:07:47;;;;;;;1.40;0.70;;;16.00;54.20;;;;;;5087036;28;20393;-60
2022/09/27 12:10:16;;;;;;;3.95;0.90;;;16.10;54.60;;;;;;5099525;28;20040;-60
2022/09/27 12:12:45;;;;;;;5.15;0.60;;;16.10;55.40;;;;;;5092310;28;20081;-60
2022/09/27 12:15:24;;;;;;;1.35;0.63;;;16.20;55.80;;;;;;5105690;28;20028;-60
2022/09/27 12:17:54;;;;;;;2.33;0.77;;;16.30;54.50;;;;;;5107117;28;20028;-59
2022/09/27 12:20:30;;;;;;;3.05;0.68;;;16.30;54.20;;;;;;5084124;28;20029;-61
2022/09/27 12:23:10;;;;;;;1.05;0.63;;;16.30;54.20;;;;;;5086591;28;20104;-59
2022/09/27 12:25:40;;;;;;;1.33;0.85;;;16.30;53.90;;;;;;5082535;28;20085;-60
2022/09/27 12:28:40;;;;;;;1.20;0.73;;;16.20;54.00;;;;;;5085089;28;20040;-59
2022/09/27 12:31:54;;;;;;;2.53;0.70;;;16.10;53.40;;;;;;5092933;28;20043;-61
2022/09/27 12:34:32;;;;;;;3.10;0.70;;;16.00;53.70;;;;;;5044120;28;20041;-59
2022/09/27 12:37:09;;;;;;;2.35;0.77;;;16.00;53.70;;;;;;5062619;28;20036;-59
2022/09/27 12:39:47;;;;;;;1.45;0.70;;;15.90;54.40;;;;;;5024445;28;20026;-59
2022/09/27 12:42:27;;;;;;;1.65;0.60;;;16.00;55.00;;;;;;5063563;28;20088;-60
2022/09/27 12:44:53;;;;;;;1.50;0.60;;;16.00;55.50;;;;;;5023373;28;20058;-59
2022/09/27 12:47:34;;;;;;;1.55;0.47;;;16.10;54.70;;;;;;5062744;28;20063;-59
2022/09/27 12:50:12;;;;;;;0.98;0.57;;;16.20;54.30;;;;;;4959468;28;20064;-60
2022/09/27 12:52:42;;;;;;;1.02;0.60;;;16.20;54.50;;;;;;5043890;28;20439;-61
2022/09/27 12:55:23;;;;;;;1.08;0.40;;;16.30;53.80;;;;;;5023276;28;20113;-60
2022/09/27 12:58:01;;;;;;;0.60;0.40;;;16.40;53.30;;;;;;5045935;28;20032;-60
2022/09/27 13:00:50;;;;;;;0.45;0.45;;;16.50;53.40;;;;;;5029563;28;20120;-60
2022/09/27 13:03:42;;;;;;;1.15;0.55;;;16.50;53.80;;;;;;5043780;28;20076;-58
2022/09/27 13:06:07;;;;;;;1.35;0.50;;;16.50;52.80;;;;;;5038555;28;20034;-61
2022/09/27 13:09:00;;;;;;;4.57;0.60;;;16.50;52.60;;;;;;5062384;28;20065;-59
2022/09/27 13:11:43;;;;;;;1.65;0.63;;;16.50;51.70;;;;;;5075968;28;20484;-59
2022/09/27 13:14:18;;;;;;;1.02;0.60;;;16.40;51.90;;;;;;5065966;28;20051;-59
2022/09/27 13:16:46;;;;;;;0.93;0.40;;;16.30;51.90;;;;;;5081473;28;20038;-59
2022/09/27 13:19:34;;;;;;;1.60;0.50;;;16.30;52.50;;;;;;5105729;28;20062;-61
2022/09/27 13:22:01;;;;;;;1.88;0.50;;;16.20;52.60;;;;;;5085094;28;20052;-59
2022/09/27 13:24:43;;;;;;;0.82;0.40;;;16.20;52.70;;;;;;5086199;28;20075;-61